createdAt,value
2018-05-25T00:01:03.810Z,15.70
2018-05-25T00:03:32.163Z,15.80
2018-05-25T00:06:01.363Z,15.70
2018-05-25T00:08:29.688Z,15.60
2018-05-25T00:10:58.832Z,15.80
2018-05-25T00:13:28.167Z,15.80
2018-05-25T00:15:56.519Z,15.90
2018-05-25T00:18:24.839Z,15.80
2018-05-25T00:20:53.178Z,15.70
2018-05-25T00:23:21.520Z,15.70
2018-05-25T00:25:49.967Z,15.60
2018-05-25T00:28:18.375Z,15.60
2018-05-25T00:30:47.456Z,15.80
2018-05-25T00:33:15.794Z,15.80
2018-05-25T00:35:44.109Z,15.70
2018-05-25T00:38:15.367Z,15.50
2018-05-25T00:40:44.462Z,15.30
2018-05-25T00:43:14.215Z,15.50
2018-05-25T00:45:42.539Z,15.50
2018-05-25T00:48:11.657Z,15.50
2018-05-25T00:50:40.734Z,15.40
2018-05-25T00:53:09.080Z,15.40
2018-05-25T00:55:40.147Z,15.40
2018-05-25T00:58:08.491Z,15.40
2018-05-25T01:00:36.824Z,15.30
2018-05-25T01:03:06.193Z,15.30
2018-05-25T01:05:35.333Z,15.30
2018-05-25T01:08:04.443Z,15.40
2018-05-25T01:10:33.039Z,15.40
2018-05-25T01:13:02.195Z,15.40
2018-05-25T01:15:33.549Z,15.30
2018-05-25T01:18:02.675Z,15.20
2018-05-25T01:20:32.258Z,15.20
2018-05-25T01:23:01.370Z,15.20
2018-05-25T01:25:30.537Z,15.20
2018-05-25T01:27:59.639Z,15.30
2018-05-25T01:30:29.278Z,15.30
2018-05-25T01:32:57.615Z,15.30
2018-05-25T01:35:26.215Z,15.40
2018-05-25T01:37:55.312Z,15.40
2018-05-25T01:40:25.372Z,15.30
2018-05-25T01:42:53.705Z,15.40
2018-05-25T01:45:22.791Z,15.30
2018-05-25T01:47:51.660Z,15.30
2018-05-25T01:50:20.562Z,15.30
2018-05-25T01:52:48.906Z,15.40
2018-05-25T01:55:17.219Z,15.40
2018-05-25T01:57:46.349Z,15.30
2018-05-25T02:00:15.427Z,15.40
2018-05-25T02:02:45.222Z,15.30
2018-05-25T02:07:46.655Z,15.40
2018-05-25T02:10:15.004Z,15.50
2018-05-25T02:12:43.319Z,15.50
2018-05-25T02:15:11.653Z,15.40
2018-05-25T02:17:40.742Z,15.40
2018-05-25T02:20:09.849Z,15.50
2018-05-25T02:22:38.179Z,15.40
2018-05-25T02:25:06.520Z,15.40
2018-05-25T02:27:34.902Z,15.40
2018-05-25T02:30:03.351Z,15.50
2018-05-25T02:32:32.500Z,15.50
2018-05-25T02:35:00.806Z,15.50
2018-05-25T02:37:29.143Z,15.50
2018-05-25T02:39:57.461Z,15.30
2018-05-25T02:42:25.796Z,15.00
2018-05-25T02:44:54.120Z,14.70
2018-05-25T02:47:22.459Z,14.60
2018-05-25T02:49:50.790Z,14.60
2018-05-25T02:52:19.916Z,15.00
2018-05-25T02:54:48.348Z,15.00
2018-05-25T02:57:17.341Z,14.70
2018-05-25T02:59:45.639Z,14.60
2018-05-25T03:02:14.776Z,14.50
2018-05-25T03:04:43.103Z,14.50
2018-05-25T03:07:11.697Z,14.70
2018-05-25T03:09:40.777Z,14.90
2018-05-25T03:12:09.125Z,14.80
2018-05-25T03:14:37.461Z,14.70
2018-05-25T03:17:06.590Z,14.90
2018-05-25T03:19:34.925Z,14.90
2018-05-25T03:22:04.046Z,15.20
2018-05-25T03:24:32.371Z,15.20
2018-05-25T03:27:00.715Z,15.30
2018-05-25T03:29:29.030Z,15.30
2018-05-25T03:31:57.385Z,15.40
2018-05-25T03:34:25.699Z,15.40
2018-05-25T03:36:54.023Z,15.40
2018-05-25T03:39:22.387Z,15.40
2018-05-25T03:41:50.739Z,15.50
2018-05-25T03:44:19.871Z,15.50
2018-05-25T03:46:48.216Z,15.50
2018-05-25T03:49:17.348Z,15.40
2018-05-25T03:51:45.707Z,15.40
2018-05-25T03:54:14.068Z,15.50
2018-05-25T03:56:42.387Z,15.60
2018-05-25T03:59:22.646Z,15.80
2018-05-25T04:01:55.873Z,15.80
2018-05-25T04:04:25.117Z,15.80
2018-05-25T04:06:53.453Z,15.60
2018-05-25T04:09:21.803Z,15.60
2018-05-25T04:11:50.156Z,15.50
2018-05-25T04:14:18.557Z,15.40
2018-05-25T04:16:47.624Z,15.40
2018-05-25T04:19:15.971Z,15.40
2018-05-25T04:21:44.290Z,15.30
2018-05-25T04:24:12.642Z,15.40
2018-05-25T04:26:41.748Z,15.40
2018-05-25T04:29:10.900Z,15.50
2018-05-25T04:31:39.237Z,15.40
2018-05-25T04:34:07.571Z,15.50
2018-05-25T04:36:35.928Z,15.60
2018-05-25T04:39:07.628Z,15.70
2018-05-25T04:41:36.729Z,15.80
2018-05-25T04:44:05.824Z,15.80
2018-05-25T04:46:34.943Z,15.80
2018-05-25T04:49:03.366Z,15.70
2018-05-25T04:51:33.290Z,15.80
2018-05-25T04:54:01.606Z,15.80
2018-05-25T04:56:29.960Z,15.80
2018-05-25T04:58:58.309Z,15.40
2018-05-25T05:01:27.424Z,15.20
2018-05-25T05:03:55.737Z,15.20
2018-05-25T05:06:24.134Z,15.40
2018-05-25T05:08:52.454Z,15.30
2018-05-25T05:11:20.799Z,15.40
2018-05-25T05:13:49.113Z,15.40
2018-05-25T05:16:17.455Z,15.50
2018-05-25T05:18:45.787Z,15.50
2018-05-25T05:21:14.893Z,15.50
2018-05-25T05:23:43.981Z,15.50
2018-05-25T05:26:13.116Z,15.70
2018-05-25T05:28:41.426Z,15.70
2018-05-25T05:31:10.315Z,15.80
2018-05-25T05:33:38.664Z,16.00
2018-05-25T05:36:07.023Z,15.80
2018-05-25T05:38:35.350Z,15.80
2018-05-25T05:41:03.725Z,15.90
2018-05-25T05:43:32.069Z,15.80
2018-05-25T05:46:00.422Z,15.80
2018-05-25T05:48:29.507Z,15.50
2018-05-25T05:50:58.685Z,15.70
2018-05-25T05:53:27.013Z,15.70
2018-05-25T05:55:55.381Z,15.70
2018-05-25T05:58:23.747Z,15.80
2018-05-25T06:00:52.851Z,15.40
2018-05-25T06:03:21.955Z,15.50
2018-05-25T06:05:50.268Z,15.40
2018-05-25T06:08:18.639Z,15.60
2018-05-25T06:10:46.950Z,15.70
2018-05-25T06:13:16.075Z,15.70
2018-05-25T06:15:44.403Z,15.70
2018-05-25T06:18:12.734Z,15.70
2018-05-25T06:20:41.716Z,15.80
2018-05-25T06:23:10.843Z,15.70
2018-05-25T06:25:39.184Z,15.70
2018-05-25T06:28:07.529Z,15.80
2018-05-25T06:30:35.847Z,15.80
2018-05-25T06:33:04.968Z,15.80
2018-05-25T06:35:33.297Z,15.70
2018-05-25T06:38:01.650Z,15.80
2018-05-25T06:40:29.976Z,15.90
2018-05-25T06:42:59.086Z,15.90
2018-05-25T06:45:27.419Z,15.90
2018-05-25T06:47:55.773Z,15.90
2018-05-25T06:50:24.110Z,15.80
2018-05-25T06:52:53.243Z,16.00
2018-05-25T06:55:21.624Z,16.00
2018-05-25T06:57:50.018Z,15.90
2018-05-25T07:00:18.510Z,16.00
2018-05-25T07:02:47.502Z,16.00
2018-05-25T07:05:15.850Z,15.90
2018-05-25T07:07:44.201Z,16.00
2018-05-25T07:10:13.295Z,16.20
2018-05-25T07:12:42.392Z,16.30
2018-05-25T07:15:11.512Z,16.50
2018-05-25T07:17:39.841Z,16.50
2018-05-25T07:20:08.219Z,16.60
2018-05-25T07:22:36.540Z,16.40
2018-05-25T07:25:04.954Z,16.60
2018-05-25T07:27:33.479Z,16.60
2018-05-25T07:30:01.842Z,16.70
2018-05-25T07:32:30.936Z,17.10
2018-05-25T07:34:59.298Z,17.00
2018-05-25T07:37:27.624Z,17.10
2018-05-25T07:39:55.979Z,16.70
2018-05-25T07:42:24.308Z,16.80
2018-05-25T07:44:52.659Z,17.10
2018-05-25T07:47:21.755Z,17.30
2018-05-25T07:49:50.871Z,17.40
2018-05-25T07:52:19.353Z,17.30
2018-05-25T07:54:47.882Z,17.00
2018-05-25T07:57:16.237Z,17.10
2018-05-25T07:59:44.608Z,17.20
2018-05-25T08:02:12.969Z,17.10
2018-05-25T08:04:41.288Z,16.80
2018-05-25T08:07:09.628Z,16.90
2018-05-25T08:09:37.984Z,16.90
2018-05-25T08:12:07.089Z,17.50
2018-05-25T08:14:35.472Z,17.50
2018-05-25T08:17:03.825Z,17.90
2018-05-25T08:19:32.934Z,17.50
2018-05-25T08:22:02.112Z,17.80
2018-05-25T08:24:30.436Z,17.80
2018-05-25T08:26:58.791Z,18.00
2018-05-25T08:29:27.122Z,18.00
2018-05-25T08:31:55.479Z,18.00
2018-05-25T08:34:23.800Z,18.10
2018-05-25T08:36:52.927Z,18.50
2018-05-25T08:39:21.274Z,18.50
2018-05-25T08:41:49.628Z,18.10
2018-05-25T08:44:17.968Z,18.40
2018-05-25T08:46:46.314Z,18.50
2018-05-25T08:49:15.423Z,18.90
2018-05-25T08:51:43.794Z,18.80
2018-05-25T08:54:12.872Z,19.60
2018-05-25T08:56:41.226Z,19.60
2018-05-25T08:59:09.544Z,20.20
2018-05-25T09:01:38.682Z,20.40
2018-05-25T09:04:07.027Z,20.40
2018-05-25T09:06:36.123Z,21.10
2018-05-25T09:09:05.460Z,21.10
2018-05-25T09:11:33.775Z,21.30
2018-05-25T09:14:02.114Z,21.20
2018-05-25T09:16:30.448Z,20.60
2018-05-25T09:18:59.563Z,21.50
2018-05-25T09:21:27.871Z,21.50
2018-05-25T09:23:56.246Z,22.00
2018-05-25T09:26:24.562Z,22.30
2018-05-25T09:28:52.920Z,22.40
2018-05-25T09:31:21.237Z,22.00
2018-05-25T09:33:50.480Z,21.70
2018-05-25T09:36:18.827Z,21.90
2018-05-25T09:38:47.181Z,21.90
2018-05-25T09:41:15.490Z,22.20
2018-05-25T09:43:43.840Z,22.30
2018-05-25T09:46:12.171Z,22.70
2018-05-25T09:48:40.516Z,22.40
2018-05-25T09:51:09.618Z,22.40
2018-05-25T09:53:37.985Z,22.40
2018-05-25T09:56:07.142Z,23.20
2018-05-25T09:58:35.447Z,23.20
2018-05-25T10:01:03.860Z,22.70
2018-05-25T10:03:32.216Z,23.00
2018-05-25T10:06:00.624Z,23.50
2018-05-25T10:08:28.991Z,23.90
2018-05-25T10:10:57.327Z,24.40
2018-05-25T10:13:25.648Z,25.00
2018-05-25T10:15:53.982Z,25.10
2018-05-25T10:18:22.325Z,25.10
2018-05-25T10:20:50.675Z,24.80
2018-05-25T10:23:19.908Z,25.20
2018-05-25T10:25:48.363Z,25.20
2018-05-25T10:28:16.695Z,25.30
2018-05-25T10:30:45.073Z,25.50
2018-05-25T10:33:13.396Z,25.40
2018-05-25T10:35:41.779Z,25.80
2018-05-25T10:38:10.102Z,24.70
2018-05-25T10:40:38.509Z,24.70
2018-05-25T10:43:06.874Z,24.90
2018-05-25T10:45:36.023Z,25.00
2018-05-25T10:48:04.388Z,25.00
2018-05-25T10:50:32.927Z,24.80
2018-05-25T10:53:01.260Z,24.80
2018-05-25T10:55:29.603Z,25.00
2018-05-25T10:57:58.701Z,25.20
2018-05-25T11:00:27.802Z,25.20
2018-05-25T11:02:56.141Z,25.20
2018-05-25T11:05:24.550Z,25.20
2018-05-25T11:07:52.859Z,25.30
2018-05-25T11:10:21.162Z,25.10
2018-05-25T11:12:49.530Z,25.00
2018-05-25T11:15:17.876Z,24.90
2018-05-25T11:17:46.244Z,25.20
2018-05-25T11:20:14.568Z,25.10
2018-05-25T11:22:42.914Z,25.50
2018-05-25T11:25:11.251Z,25.10
2018-05-25T11:27:40.365Z,25.80
2018-05-25T11:30:08.673Z,25.80
2018-05-25T11:32:37.019Z,25.60
2018-05-25T11:35:05.371Z,25.20
2018-05-25T11:37:33.698Z,25.20
2018-05-25T11:40:02.791Z,24.80
2018-05-25T11:42:31.882Z,24.80
2018-05-25T11:45:00.959Z,25.50
2018-05-25T11:47:29.307Z,25.50
2018-05-25T11:49:57.636Z,25.50
2018-05-25T11:52:26.004Z,25.50
2018-05-25T11:54:57.390Z,25.80
2018-05-25T11:57:25.724Z,24.60
2018-05-25T11:59:54.031Z,25.20
2018-05-25T12:02:23.163Z,25.60
2018-05-25T12:04:51.469Z,25.60
2018-05-25T12:07:19.769Z,24.80
2018-05-25T12:09:48.883Z,25.20
2018-05-25T12:12:17.195Z,25.20
2018-05-25T12:14:45.573Z,25.20
2018-05-25T12:17:13.890Z,25.50
2018-05-25T12:19:42.239Z,25.40
2018-05-25T12:22:10.555Z,25.60
2018-05-25T12:24:39.674Z,26.40
2018-05-25T12:27:08.007Z,26.40
2018-05-25T12:29:36.347Z,26.20
2018-05-25T12:32:04.791Z,25.60
2018-05-25T12:34:33.903Z,25.30
2018-05-25T12:37:02.203Z,25.30
2018-05-25T12:39:30.531Z,25.10
2018-05-25T12:41:58.893Z,25.70
2018-05-25T12:44:27.249Z,25.70
2018-05-25T12:46:55.582Z,25.90
2018-05-25T12:49:24.675Z,25.80
2018-05-25T12:51:53.808Z,26.60
2018-05-25T12:54:22.138Z,26.60
2018-05-25T12:56:50.468Z,27.00
2018-05-25T12:59:18.863Z,26.90
2018-05-25T13:01:47.184Z,26.80
2018-05-25T13:04:15.546Z,27.10
2018-05-25T13:06:43.889Z,26.60
2018-05-25T13:09:12.197Z,26.40
2018-05-25T13:11:40.559Z,26.60
2018-05-25T13:14:08.881Z,26.50
2018-05-25T13:16:37.450Z,25.50
2018-05-25T13:19:06.605Z,26.10
2018-05-25T13:21:34.952Z,26.10
2018-05-25T13:24:03.418Z,26.70
2018-05-25T13:26:32.535Z,26.70
2018-05-25T13:29:02.376Z,26.70
2018-05-25T13:31:30.741Z,27.20
2018-05-25T13:33:59.070Z,27.30
2018-05-25T13:36:28.179Z,26.40
2018-05-25T13:38:56.532Z,26.30
2018-05-25T13:41:24.871Z,24.80
2018-05-25T13:43:53.200Z,25.70
2018-05-25T13:46:22.333Z,26.40
2018-05-25T13:48:50.656Z,26.40
2018-05-25T13:51:18.999Z,26.90
2018-05-25T13:53:47.311Z,26.40
2018-05-25T13:56:15.663Z,26.20
2018-05-25T13:58:43.980Z,26.30
2018-05-25T14:01:12.327Z,26.90
2018-05-25T14:03:40.643Z,27.30
2018-05-25T14:06:09.759Z,27.50
2018-05-25T14:08:38.867Z,27.50
2018-05-25T14:11:07.196Z,27.50
2018-05-25T14:13:35.553Z,26.30
2018-05-25T14:16:03.876Z,27.10
2018-05-25T14:18:32.216Z,27.20
2018-05-25T14:21:00.572Z,26.40
2018-05-25T14:23:28.911Z,26.90
2018-05-25T14:25:57.983Z,26.60
2018-05-25T14:28:26.339Z,26.60
2018-05-25T14:30:54.648Z,25.80
2018-05-25T14:33:22.984Z,26.10
2018-05-25T14:35:51.293Z,25.70
2018-05-25T14:38:19.622Z,26.10
2018-05-25T14:40:47.951Z,26.00
2018-05-25T14:43:16.285Z,26.40
2018-05-25T14:45:44.621Z,26.00
2018-05-25T14:48:12.969Z,26.30
2018-05-25T14:50:41.306Z,26.40
2018-05-25T14:53:09.671Z,26.10
2018-05-25T14:55:38.778Z,26.80
2018-05-25T14:58:07.147Z,26.80
2018-05-25T15:00:37.361Z,27.00
2018-05-25T15:03:06.452Z,27.20
2018-05-25T15:05:35.592Z,27.20
2018-05-25T15:08:03.951Z,27.10
2018-05-25T15:10:32.317Z,26.00
2018-05-25T15:13:01.440Z,25.50
2018-05-25T15:15:30.454Z,25.40
2018-05-25T15:17:58.774Z,25.30
2018-05-25T15:20:28.521Z,25.20
2018-05-25T15:22:56.838Z,25.20
2018-05-25T15:25:25.190Z,25.10
2018-05-25T15:27:53.506Z,24.90
2018-05-25T15:30:22.633Z,25.20
2018-05-25T15:32:53.239Z,25.20
2018-05-25T15:35:21.639Z,25.70
2018-05-25T15:37:50.735Z,25.70
2018-05-25T15:40:19.078Z,25.70
2018-05-25T15:42:47.414Z,25.50
2018-05-25T15:45:15.744Z,25.70
2018-05-25T15:47:44.071Z,25.50
2018-05-25T15:50:12.418Z,25.10
2018-05-25T15:52:41.488Z,25.80
2018-05-25T15:55:09.846Z,25.80
2018-05-25T15:57:38.218Z,24.90
2018-05-25T16:00:06.563Z,24.70
2018-05-25T16:02:34.994Z,24.70
2018-05-25T16:05:03.362Z,25.20
2018-05-25T16:07:31.672Z,25.00
2018-05-25T16:10:00.036Z,25.30
2018-05-25T16:12:28.335Z,25.70
2018-05-25T16:14:57.436Z,25.70
2018-05-25T16:17:26.518Z,25.70
2018-05-25T16:19:54.855Z,25.80
2018-05-25T16:22:23.184Z,25.90
2018-05-25T16:24:52.255Z,25.70
2018-05-25T16:27:20.595Z,25.70
2018-05-25T16:29:48.919Z,25.70
2018-05-25T16:32:18.103Z,25.40
2018-05-25T16:34:46.422Z,25.30
2018-05-25T16:37:15.515Z,25.00
2018-05-25T16:39:45.102Z,24.60
2018-05-25T16:42:13.444Z,24.60
2018-05-25T16:44:42.535Z,23.70
2018-05-25T16:47:12.480Z,23.70
2018-05-25T16:49:40.802Z,23.20
2018-05-25T16:52:09.158Z,23.20
2018-05-25T16:54:38.246Z,23.20
2018-05-25T16:57:06.589Z,23.20
2018-05-25T16:59:35.653Z,23.30
2018-05-25T17:02:03.996Z,23.50
2018-05-25T17:04:32.306Z,23.60
2018-05-25T17:07:00.637Z,23.10
2018-05-25T17:09:28.940Z,23.40
2018-05-25T17:11:58.074Z,23.40
2018-05-25T17:14:26.386Z,23.40
2018-05-25T17:16:54.738Z,23.60
2018-05-25T17:19:23.072Z,23.70
2018-05-25T17:21:52.159Z,23.40
2018-05-25T17:24:20.518Z,23.30
2018-05-25T17:26:48.859Z,23.50
2018-05-25T17:29:17.201Z,22.90
2018-05-25T17:31:45.575Z,23.30
2018-05-25T17:34:13.928Z,23.00
2018-05-25T17:36:42.251Z,23.20
2018-05-25T17:39:10.590Z,23.10
2018-05-25T17:41:38.900Z,23.00
2018-05-25T17:44:08.016Z,22.60
2018-05-25T17:46:36.373Z,22.60
2018-05-25T17:49:05.461Z,22.40
2018-05-25T17:51:34.631Z,22.40
2018-05-25T17:54:02.974Z,22.40
2018-05-25T17:56:31.293Z,22.30
2018-05-25T17:58:59.622Z,22.70
2018-05-25T18:01:27.947Z,22.50
2018-05-25T18:03:56.319Z,22.80
2018-05-25T18:06:24.628Z,22.90
2018-05-25T18:08:53.729Z,22.70
2018-05-25T18:11:22.814Z,22.60
2018-05-25T18:13:51.942Z,22.70
2018-05-25T18:16:20.263Z,22.70
2018-05-25T18:18:48.747Z,22.40
2018-05-25T18:21:17.093Z,22.40
2018-05-25T18:23:45.428Z,22.50
2018-05-25T18:26:14.577Z,22.80
2018-05-25T18:28:42.896Z,22.70
2018-05-25T18:31:11.238Z,22.40
2018-05-25T18:33:39.611Z,22.50
2018-05-25T18:36:07.946Z,22.60
2018-05-25T18:38:37.041Z,21.80
2018-05-25T18:41:05.390Z,21.80
2018-05-25T18:43:33.765Z,22.10
2018-05-25T18:46:02.123Z,21.90
2018-05-25T18:48:30.468Z,21.70
2018-05-25T18:50:58.827Z,21.50
2018-05-25T18:53:27.907Z,21.70
2018-05-25T18:55:56.235Z,21.70
2018-05-25T18:58:24.549Z,21.60
2018-05-25T19:00:52.904Z,21.70
2018-05-25T19:03:21.209Z,21.60
2018-05-25T19:05:49.552Z,21.80
2018-05-25T19:08:18.510Z,21.70
2018-05-25T19:10:47.602Z,21.90
2018-05-25T19:13:16.708Z,21.70
2018-05-25T19:15:45.806Z,21.70
2018-05-25T19:21:14.750Z,21.60
2018-05-25T19:23:43.095Z,21.70
2018-05-25T19:26:11.438Z,21.80
2018-05-25T19:28:39.765Z,21.80
2018-05-25T19:31:08.115Z,21.70
2018-05-25T19:33:37.222Z,21.60
2018-05-25T19:36:05.555Z,21.60
2018-05-25T19:38:33.900Z,21.50
2018-05-25T19:41:02.902Z,21.50
2018-05-25T19:43:31.238Z,21.20
2018-05-25T19:46:00.314Z,20.90
2018-05-25T19:48:28.647Z,20.90
2018-05-25T19:50:56.960Z,20.70
2018-05-25T19:53:25.293Z,20.80
2018-05-25T19:55:53.595Z,20.80
2018-05-25T19:58:21.936Z,20.80
2018-05-25T20:00:51.016Z,20.30
2018-05-25T20:03:20.112Z,20.30
2018-05-25T20:05:49.183Z,20.10
2018-05-25T20:08:17.519Z,20.10
2018-05-25T20:10:45.836Z,20.20
2018-05-25T20:13:14.174Z,20.20
2018-05-25T20:15:42.484Z,20.10
2018-05-25T20:18:10.828Z,20.10
2018-05-25T20:20:39.144Z,20.00
2018-05-25T20:23:07.505Z,19.90
2018-05-25T20:25:35.818Z,19.90
2018-05-25T20:28:04.212Z,20.00
2018-05-25T20:30:33.383Z,19.60
2018-05-25T20:33:01.716Z,19.60
2018-05-25T20:35:30.033Z,19.70
2018-05-25T20:37:58.367Z,19.60
2018-05-25T20:40:26.691Z,19.60
2018-05-25T20:42:55.035Z,19.50
2018-05-25T20:45:23.354Z,19.20
2018-05-25T20:47:51.668Z,19.20
2018-05-25T20:50:20.782Z,19.10
2018-05-25T20:52:49.101Z,19.00
2018-05-25T20:55:17.447Z,19.20
2018-05-25T20:57:45.750Z,19.00
2018-05-25T21:00:14.104Z,18.80
2018-05-25T21:02:42.413Z,18.80
2018-05-25T21:05:10.749Z,18.80
2018-05-25T21:07:39.830Z,18.60
2018-05-25T21:10:08.171Z,18.50
2018-05-25T21:12:36.485Z,18.70
2018-05-25T21:15:04.821Z,18.60
2018-05-25T21:17:33.163Z,18.50
2018-05-25T21:20:01.512Z,18.40
2018-05-25T21:22:30.582Z,18.40
2018-05-25T21:24:58.936Z,18.40
2018-05-25T21:27:27.244Z,18.40
2018-05-25T21:29:55.570Z,18.40
2018-05-25T21:32:23.876Z,18.20
2018-05-25T21:34:52.208Z,18.10
2018-05-25T21:37:20.550Z,18.10
2018-05-25T21:39:48.886Z,18.10
2018-05-25T21:42:17.198Z,18.20
2018-05-25T21:44:45.546Z,18.10
2018-05-25T21:47:14.842Z,18.00
2018-05-25T21:49:43.178Z,18.00
2018-05-25T21:52:11.486Z,17.70
2018-05-25T21:54:39.800Z,17.70
2018-05-25T21:57:08.158Z,17.60
2018-05-25T21:59:36.484Z,17.60
2018-05-25T22:02:05.596Z,17.70
2018-05-25T22:04:33.917Z,17.70
2018-05-25T22:07:02.253Z,17.80
2018-05-25T22:09:31.319Z,17.50
2018-05-25T22:11:59.666Z,17.50
2018-05-25T22:14:27.968Z,17.50
2018-05-25T22:16:56.331Z,17.40
2018-05-25T22:19:24.646Z,17.60
2018-05-25T22:21:53.763Z,17.30
2018-05-25T22:24:22.862Z,17.30
2018-05-25T22:26:51.187Z,17.30
2018-05-25T22:29:19.558Z,17.30
2018-05-25T22:31:47.884Z,17.30
2018-05-25T22:34:16.973Z,17.40
2018-05-25T22:36:46.091Z,17.30
2018-05-25T22:39:14.419Z,17.30
2018-05-25T22:41:42.750Z,17.20
2018-05-25T22:44:23.020Z,17.10
2018-05-25T22:47:09.157Z,17.10
2018-05-25T22:49:55.213Z,17.10
2018-05-25T22:52:34.510Z,17.10
2018-05-25T22:55:02.585Z,17.00
2018-05-25T22:57:30.914Z,16.80
2018-05-25T22:59:59.222Z,16.60
2018-05-25T23:02:28.335Z,16.50
2018-05-25T23:04:56.669Z,16.50
2018-05-25T23:07:24.999Z,16.50
2018-05-25T23:09:53.315Z,16.70
2018-05-25T23:12:21.654Z,16.40
2018-05-25T23:14:53.402Z,16.40
2018-05-25T23:17:22.490Z,16.40
2018-05-25T23:19:51.571Z,16.40
2018-05-25T23:22:19.899Z,16.30
2018-05-25T23:24:48.412Z,16.30
2018-05-25T23:27:16.750Z,16.40
2018-05-25T23:29:45.063Z,16.40
2018-05-25T23:32:13.460Z,16.30
2018-05-25T23:34:41.782Z,16.30
2018-05-25T23:37:10.107Z,16.20
2018-05-25T23:39:38.443Z,16.10
2018-05-25T23:42:06.754Z,16.10
2018-05-25T23:44:35.137Z,16.10
2018-05-25T23:47:03.456Z,16.10
2018-05-25T23:49:32.545Z,15.90
2018-05-25T23:52:01.632Z,16.10
2018-05-25T23:54:29.965Z,16.10
2018-05-25T23:56:58.280Z,16.00
2018-05-25T23:59:26.602Z,15.90
